sensor_id;sensor_type;location;lat;lon;timestamp;pressure;altitude;pressure_sealevel;temperature;humidity
45253;BME280;63171;50.520;30.486;2022-11-03T00:00:49;100132.34;;;9.94;95.61
45253;BME280;63171;50.520;30.486;2022-11-03T00:01:41;100121.13;;;9.92;95.64
45253;BME280;63171;50.520;30.486;2022-11-03T00:02:31;100125.91;;;9.99;95.84
45253;BME280;63171;50.520;30.486;2022-11-03T00:03:23;100120.59;;;10.01;95.85
45253;BME280;63171;50.520;30.486;2022-11-03T00:04:15;100127.88;;;9.96;95.79
45253;BME280;63171;50.520;30.486;2022-11-03T00:05:07;100128.03;;;9.93;95.89
45253;BME280;63171;50.520;30.486;2022-11-03T00:06:11;100123.13;;;9.87;95.87
45253;BME280;63171;50.520;30.486;2022-11-03T00:07:01;100120.78;;;9.98;95.85
45253;BME280;63171;50.520;30.486;2022-11-03T00:07:52;100122.13;;;10.05;96.21
45253;BME280;63171;50.520;30.486;2022-11-03T00:08:42;100121.53;;;10.00;96.04
45253;BME280;63171;50.520;30.486;2022-11-03T00:09:32;100114.78;;;9.96;96.01
45253;BME280;63171;50.520;30.486;2022-11-03T00:10:22;100122.06;;;9.91;96.05
45253;BME280;63171;50.520;30.486;2022-11-03T00:11:14;100121.97;;;9.92;96.15
45253;BME280;63171;50.520;30.486;2022-11-03T00:12:04;100128.22;;;9.90;96.08
45253;BME280;63171;50.520;30.486;2022-11-03T00:12:56;100119.34;;;9.92;96.33
45253;BME280;63171;50.520;30.486;2022-11-03T00:13:46;100118.25;;;9.96;96.38
45253;BME280;63171;50.520;30.486;2022-11-03T00:14:37;100118.06;;;9.84;96.30
45253;BME280;63171;50.520;30.486;2022-11-03T00:15:26;100127.69;;;9.83;96.37
45253;BME280;63171;50.520;30.486;2022-11-03T00:16:17;100122.91;;;9.75;96.59
45253;BME280;63171;50.520;30.486;2022-11-03T00:17:07;100116.97;;;9.72;96.38
45253;BME280;63171;50.520;30.486;2022-11-03T00:17:58;100114.22;;;9.75;96.43
45253;BME280;63171;50.520;30.486;2022-11-03T00:18:49;100107.97;;;9.77;96.61
45253;BME280;63171;50.520;30.486;2022-11-03T00:19:40;100116.66;;;9.78;96.61
45253;BME280;63171;50.520;30.486;2022-11-03T00:20:30;100116.75;;;9.76;96.59
45253;BME280;63171;50.520;30.486;2022-11-03T00:21:21;100123.47;;;9.81;96.85
45253;BME280;63171;50.520;30.486;2022-11-03T00:22:11;100123.56;;;9.79;96.92
45253;BME280;63171;50.520;30.486;2022-11-03T00:23:02;100120.38;;;9.90;96.99
45253;BME280;63171;50.520;30.486;2022-11-03T00:23:52;100122.06;;;9.91;97.02
45253;BME280;63171;50.520;30.486;2022-11-03T00:24:43;100122.53;;;9.97;97.26
45253;BME280;63171;50.520;30.486;2022-11-03T00:25:33;100121.78;;;9.95;97.14
45253;BME280;63171;50.520;30.486;2022-11-03T00:26:24;100123.97;;;9.87;97.25
45253;BME280;63171;50.520;30.486;2022-11-03T00:27:16;100123.75;;;9.92;97.36
45253;BME280;63171;50.520;30.486;2022-11-03T00:28:06;100121.97;;;9.92;97.18
45253;BME280;63171;50.520;30.486;2022-11-03T00:28:59;100129.38;;;9.84;97.25
45253;BME280;63171;50.520;30.486;2022-11-03T00:29:49;100130.81;;;9.74;97.26
45253;BME280;63171;50.520;30.486;2022-11-03T00:30:39;100132.56;;;9.73;97.17
45253;BME280;63171;50.520;30.486;2022-11-03T00:31:31;100129.97;;;9.73;97.18
45253;BME280;63171;50.520;30.486;2022-11-03T00:32:22;100127.34;;;9.73;97.38
45253;BME280;63171;50.520;30.486;2022-11-03T00:33:12;100119.50;;;9.73;97.44
45253;BME280;63171;50.520;30.486;2022-11-03T00:34:05;100115.81;;;9.77;97.69
45253;BME280;63171;50.520;30.486;2022-11-03T00:34:55;100110.81;;;9.73;97.55
45253;BME280;63171;50.520;30.486;2022-11-03T00:35:46;100109.97;;;9.72;97.54
45253;BME280;63171;50.520;30.486;2022-11-03T00:36:37;100121.78;;;9.80;97.64
45253;BME280;63171;50.520;30.486;2022-11-03T00:37:28;100123.56;;;9.63;97.78
45253;BME280;63171;50.520;30.486;2022-11-03T00:38:18;100119.75;;;9.69;97.74
45253;BME280;63171;50.520;30.486;2022-11-03T00:39:08;100118.25;;;9.81;98.05
45253;BME280;63171;50.520;30.486;2022-11-03T00:39:59;100115.53;;;9.82;98.06
45253;BME280;63171;50.520;30.486;2022-11-03T00:40:52;100123.41;;;9.82;98.17
45253;BME280;63171;50.520;30.486;2022-11-03T00:41:43;100129.16;;;9.89;98.26
45253;BME280;63171;50.520;30.486;2022-11-03T00:42:34;100122.81;;;9.93;98.31
45253;BME280;63171;50.520;30.486;2022-11-03T00:43:27;100124.59;;;9.92;98.35
45253;BME280;63171;50.520;30.486;2022-11-03T00:44:18;100120.28;;;9.91;98.34
45253;BME280;63171;50.520;30.486;2022-11-03T00:45:08;100125.66;;;9.57;97.91
45253;BME280;63171;50.520;30.486;2022-11-03T00:46:00;100122.28;;;9.55;98.14
45253;BME280;63171;50.520;30.486;2022-11-03T00:46:50;100117.91;;;9.71;98.46
45253;BME280;63171;50.520;30.486;2022-11-03T00:47:41;100118.44;;;9.77;98.41
45253;BME280;63171;50.520;30.486;2022-11-03T00:48:51;100124.50;;;9.78;98.53
45253;BME280;63171;50.520;30.486;2022-11-03T00:49:44;100119.66;;;9.70;98.64
45253;BME280;63171;50.520;30.486;2022-11-03T00:50:33;100117.81;;;9.72;98.59
45253;BME280;63171;50.520;30.486;2022-11-03T00:51:26;100119.59;;;9.72;98.61
45253;BME280;63171;50.520;30.486;2022-11-03T00:52:16;100113.78;;;9.83;98.95
45253;BME280;63171;50.520;30.486;2022-11-03T00:53:07;100115.28;;;9.87;98.83
45253;BME280;63171;50.520;30.486;2022-11-03T00:53:58;100116.81;;;9.75;98.79
45253;BME280;63171;50.520;30.486;2022-11-03T00:54:49;100120.88;;;9.81;98.97
45253;BME280;63171;50.520;30.486;2022-11-03T00:55:39;100114.88;;;9.78;98.92
45253;BME280;63171;50.520;30.486;2022-11-03T00:56:31;100121.13;;;9.76;98.98
45253;BME280;63171;50.520;30.486;2022-11-03T00:57:22;100115.09;;;9.74;98.92
45253;BME280;63171;50.520;30.486;2022-11-03T00:58:12;100111.16;;;9.83;99.11
45253;BME280;63171;50.520;30.486;2022-11-03T00:59:04;100121.28;;;9.73;99.11
45253;BME280;63171;50.520;30.486;2022-11-03T00:59:54;100118.44;;;9.77;99.11
45253;BME280;63171;50.520;30.486;2022-11-03T01:02:56;100117.75;;;9.90;99.39
45253;BME280;63171;50.520;30.486;2022-11-03T01:03:49;100115.97;;;9.90;99.55
45253;BME280;63171;50.520;30.486;2022-11-03T01:04:55;100112.66;;;9.87;99.38
45253;BME280;63171;50.520;30.486;2022-11-03T01:06:05;100108.13;;;9.90;99.51
45253;BME280;63171;50.520;30.486;2022-11-03T01:07:13;100111.41;;;9.94;99.65
45253;BME280;63171;50.520;30.486;2022-11-03T01:08:04;100111.22;;;9.97;99.65
45253;BME280;63171;50.520;30.486;2022-11-03T01:08:57;100108.97;;;9.91;99.61
45253;BME280;63171;50.520;30.486;2022-11-03T01:09:48;100100.19;;;9.92;99.60
45253;BME280;63171;50.520;30.486;2022-11-03T01:10:38;100109.91;;;9.90;99.65
45253;BME280;63171;50.520;30.486;2022-11-03T01:11:56;100107.59;;;9.84;99.53
45253;BME280;63171;50.520;30.486;2022-11-03T01:12:47;100105.09;;;9.82;99.68
45253;BME280;63171;50.520;30.486;2022-11-03T01:13:36;100112.66;;;9.87;99.60
45253;BME280;63171;50.520;30.486;2022-11-03T01:14:29;100112.25;;;9.94;99.89
45253;BME280;63171;50.520;30.486;2022-11-03T01:15:19;100112.34;;;9.93;99.88
45253;BME280;63171;50.520;30.486;2022-11-03T01:16:12;100110.56;;;9.93;99.91
45253;BME280;63171;50.520;30.486;2022-11-03T01:17:03;100114.69;;;9.97;99.70
45253;BME280;63171;50.520;30.486;2022-11-03T01:17:54;100115.81;;;9.93;99.76
45253;BME280;63171;50.520;30.486;2022-11-03T01:18:44;100114.13;;;9.92;99.85
45253;BME280;63171;50.520;30.486;2022-11-03T01:19:34;100116.31;;;9.84;99.62
45253;BME280;63171;50.520;30.486;2022-11-03T01:20:26;100116.31;;;9.84;99.84
45253;BME280;63171;50.520;30.486;2022-11-03T01:21:15;100113.44;;;9.89;100.00
45253;BME280;63171;50.520;30.486;2022-11-03T01:22:06;100116.81;;;9.91;100.00
45253;BME280;63171;50.520;30.486;2022-11-03T01:22:56;100126.84;;;9.83;99.82
45253;BME280;63171;50.520;30.486;2022-11-03T01:23:47;100120.50;;;9.87;100.00
45253;BME280;63171;50.520;30.486;2022-11-03T01:24:37;100118.81;;;9.86;99.95
45253;BME280;63171;50.520;30.486;2022-11-03T01:25:28;100119.34;;;9.92;100.00
45253;BME280;63171;50.520;30.486;2022-11-03T01:26:19;100110.66;;;9.92;100.00
45253;BME280;63171;50.520;30.486;2022-11-03T01:27:11;100113.75;;;9.98;100.00
45253;BME280;63171;50.520;30.486;2022-11-03T01:28:01;100111.31;;;9.95;100.00
45253;BME280;63171;50.520;30.486;2022-11-03T01:28:52;100112.31;;;10.08;100.00
45253;BME280;63171;50.520;30.486;2022-11-03T01:29:42;100110.47;;;10.11;100.00
45253;BME280;63171;50.520;30.486;2022-11-03T01:30:33;100113.00;;;10.12;100.00
45253;BME280;63171;50.520;30.486;2022-11-03T01:31:24;100114.19;;;10.06;100.00
45253;BME280;63171;50.520;30.486;2022-11-03T01:32:15;100117.91;;;10.02;100.00
45253;BME280;63171;50.520;30.486;2022-11-03T01:33:04;100114.00;;;10.10;100.00
45253;BME280;63171;50.520;30.486;2022-11-03T01:33:55;100109.53;;;10.12;100.00
45253;BME280;63171;50.520;30.486;2022-11-03T01:34:45;100114.84;;;10.10;100.00
45253;BME280;63171;50.520;30.486;2022-11-03T01:35:37;100111.38;;;10.10;100.00
45253;BME280;63171;50.520;30.486;2022-11-03T01:36:27;100115.59;;;10.12;100.00
45253;BME280;63171;50.520;30.486;2022-11-03T01:37:18;100114.94;;;10.08;100.00
45253;BME280;63171;50.520;30.486;2022-11-03T01:38:07;100128.03;;;10.08;100.00
45253;BME280;63171;50.520;30.486;2022-11-03T01:38:58;100123.81;;;10.06;100.00
45253;BME280;63171;50.520;30.486;2022-11-03T01:39:48;100115.22;;;10.04;100.00
45253;BME280;63171;50.520;30.486;2022-11-03T01:40:39;100118.41;;;10.09;100.00
45253;BME280;63171;50.520;30.486;2022-11-03T01:41:28;100116.63;;;10.10;100.00
45253;BME280;63171;50.520;30.486;2022-11-03T01:42:19;100114.47;;;10.02;100.00
45253;BME280;63171;50.520;30.486;2022-11-03T01:43:16;100112.91;;;9.98;100.00
45253;BME280;63171;50.520;30.486;2022-11-03T01:44:25;100116.06;;;10.04;100.00
45253;BME280;63171;50.520;30.486;2022-11-03T01:45:15;100119.00;;;9.98;100.00
45253;BME280;63171;50.520;30.486;2022-11-03T01:46:14;100105.81;;;10.00;100.00
45253;BME280;63171;50.520;30.486;2022-11-03T01:47:10;100112.16;;;9.96;100.00
45253;BME280;63171;50.520;30.486;2022-11-03T01:48:01;100108.13;;;10.06;100.00
45253;BME280;63171;50.520;30.486;2022-11-03T01:48:58;100109.72;;;10.08;100.00
45253;BME280;63171;50.520;30.486;2022-11-03T01:49:54;100101.28;;;10.03;100.00
45253;BME280;63171;50.520;30.486;2022-11-03T01:50:47;100101.13;;;9.91;100.00
45253;BME280;63171;50.520;30.486;2022-11-03T01:51:39;100107.69;;;9.98;100.00
45253;BME280;63171;50.520;30.486;2022-11-03T01:52:34;100111.22;;;9.97;100.00
45253;BME280;63171;50.520;30.486;2022-11-03T01:53:27;100111.31;;;9.95;100.00
45253;BME280;63171;50.520;30.486;2022-11-03T01:54:20;100107.09;;;9.93;100.00
45253;BME280;63171;50.520;30.486;2022-11-03T01:55:16;100106.19;;;9.94;100.00
45253;BME280;63171;50.520;30.486;2022-11-03T01:56:09;100105.59;;;10.04;100.00
45253;BME280;63171;50.520;30.486;2022-11-03T01:57:04;100102.69;;;10.09;100.00
45253;BME280;63171;50.520;30.486;2022-11-03T01:57:59;100108.28;;;10.03;100.00
45253;BME280;63171;50.520;30.486;2022-11-03T01:58:53;100111.31;;;10.11;100.00
45253;BME280;63171;50.520;30.486;2022-11-03T01:59:45;100118.06;;;10.15;100.00
45253;BME280;63171;50.520;30.486;2022-11-03T02:00:42;100109.63;;;10.10;100.00
45253;BME280;63171;50.520;30.486;2022-11-03T02:01:35;100113.66;;;10.00;100.00
45253;BME280;63171;50.520;30.486;2022-11-03T02:02:26;100112.91;;;9.98;100.00
45253;BME280;63171;50.520;30.486;2022-11-03T02:03:17;100113.84;;;9.97;100.00
45253;BME280;63171;50.520;30.486;2022-11-03T02:04:11;100110.97;;;10.01;100.00
45253;BME280;63171;50.520;30.486;2022-11-03T02:05:04;100101.88;;;9.93;100.00
45253;BME280;63171;50.520;30.486;2022-11-03T02:05:56;100103.56;;;9.94;100.00
45253;BME280;63171;50.520;30.486;2022-11-03T02:06:51;100106.84;;;9.97;100.00
45253;BME280;63171;50.520;30.486;2022-11-03T02:07:47;100111.31;;;9.95;100.00
45253;BME280;63171;50.520;30.486;2022-11-03T02:08:44;100106.50;;;10.03;100.00
45253;BME280;63171;50.520;30.486;2022-11-03T02:09:35;100108.28;;;10.03;100.00
45253;BME280;63171;50.520;30.486;2022-11-03T02:10:26;100106.66;;;10.00;100.00
45253;BME280;63171;50.520;30.486;2022-11-03T02:11:16;100105.50;;;9.90;100.00
45253;BME280;63171;50.520;30.486;2022-11-03T02:12:24;100101.59;;;9.97;100.00
45253;BME280;63171;50.520;30.486;2022-11-03T02:13:18;100102.28;;;10.01;100.00
45253;BME280;63171;50.520;30.486;2022-11-03T02:14:10;100103.66;;;9.92;100.00
45253;BME280;63171;50.520;30.486;2022-11-03T02:15:05;100110.47;;;9.95;100.00
45253;BME280;63171;50.520;30.486;2022-11-03T02:15:58;100110.06;;;10.02;100.00
45253;BME280;63171;50.520;30.486;2022-11-03T02:16:50;100099.84;;;9.98;100.00
45253;BME280;63171;50.520;30.486;2022-11-03T02:17:43;100099.16;;;9.94;100.00
45253;BME280;63171;50.520;30.486;2022-11-03T02:18:35;100100.00;;;9.95;100.00
45253;BME280;63171;50.520;30.486;2022-11-03T02:19:31;100093.25;;;10.06;100.00
45253;BME280;63171;50.520;30.486;2022-11-03T02:20:23;100093.91;;;10.10;100.00
45253;BME280;63171;50.520;30.486;2022-11-03T02:21:25;100090.38;;;10.11;100.00
45253;BME280;63171;50.520;30.486;2022-11-03T02:22:31;100104.19;;;10.13;100.00
45253;BME280;63171;50.520;30.486;2022-11-03T02:23:31;100099.91;;;10.12;100.00
45253;BME280;63171;50.520;30.486;2022-11-03T02:24:30;100099.81;;;10.14;100.00
45253;BME280;63171;50.520;30.486;2022-11-03T02:25:38;100099.25;;;10.08;100.00
45253;BME280;63171;50.520;30.486;2022-11-03T02:26:30;100099.41;;;10.05;100.00
45253;BME280;63171;50.520;30.486;2022-11-03T02:27:20;100095.03;;;10.06;100.00
45253;BME280;63171;50.520;30.486;2022-11-03T02:28:11;100097.50;;;9.93;100.00
45253;BME280;63171;50.520;30.486;2022-11-03T02:29:03;100096.97;;;9.87;100.00
45253;BME280;63171;50.520;30.486;2022-11-03T02:29:52;100094.69;;;9.96;100.00
45253;BME280;63171;50.520;30.486;2022-11-03T02:30:51;100096.06;;;10.03;100.00
45253;BME280;63171;50.520;30.486;2022-11-03T02:31:45;100096.06;;;10.03;100.00
45253;BME280;63171;50.520;30.486;2022-11-03T02:32:43;100091.91;;;9.99;100.00
45253;BME280;63171;50.520;30.486;2022-11-03T02:33:42;100100.84;;;9.95;100.00
45253;BME280;63171;50.520;30.486;2022-11-03T02:34:39;100091.16;;;9.82;100.00
45253;BME280;63171;50.520;30.486;2022-11-03T02:35:35;100096.97;;;9.87;100.00
45253;BME280;63171;50.520;30.486;2022-11-03T02:36:30;100096.56;;;9.94;100.00
45253;BME280;63171;50.520;30.486;2022-11-03T02:37:27;100088.72;;;9.94;100.00
45253;BME280;63171;50.520;30.486;2022-11-03T02:38:20;100095.13;;;10.04;100.00
45253;BME280;63171;50.520;30.486;2022-11-03T02:39:13;100090.28;;;10.13;100.00
45253;BME280;63171;50.520;30.486;2022-11-03T02:40:10;100089.19;;;10.17;100.00
45253;BME280;63171;50.520;30.486;2022-11-03T02:41:05;100094.66;;;10.12;100.00
45253;BME280;63171;50.520;30.486;2022-11-03T02:41:59;100092.59;;;10.03;100.00
45253;BME280;63171;50.520;30.486;2022-11-03T02:42:51;100094.00;;;10.08;100.00
45253;BME280;63171;50.520;30.486;2022-11-03T02:43:43;100096.72;;;10.07;100.00
45253;BME280;63171;50.520;30.486;2022-11-03T02:44:35;100096.53;;;10.10;100.00
45253;BME280;63171;50.520;30.486;2022-11-03T02:45:29;100096.63;;;10.08;100.00
45253;BME280;63171;50.520;30.486;2022-11-03T02:46:19;100092.31;;;10.07;100.00
45253;BME280;63171;50.520;30.486;2022-11-03T02:47:11;100088.28;;;10.02;100.00
45253;BME280;63171;50.520;30.486;2022-11-03T02:48:04;100093.66;;;9.99;100.00
45253;BME280;63171;50.520;30.486;2022-11-03T02:48:55;100089.88;;;10.04;100.00
45253;BME280;63171;50.520;30.486;2022-11-03T02:49:46;100090.63;;;10.06;100.00
45253;BME280;63171;50.520;30.486;2022-11-03T02:50:38;100084.09;;;10.14;100.00
45253;BME280;63171;50.520;30.486;2022-11-03T02:51:28;100095.94;;;10.21;100.00
45253;BME280;63171;50.520;30.486;2022-11-03T02:52:36;100091.56;;;10.21;100.00
45253;BME280;63171;50.520;30.486;2022-11-03T02:53:27;100099.25;;;10.24;100.00
45253;BME280;63171;50.520;30.486;2022-11-03T02:54:22;100092.13;;;10.26;100.00
45253;BME280;63171;50.520;30.486;2022-11-03T02:55:19;100094.25;;;10.20;100.00
45253;BME280;63171;50.520;30.486;2022-11-03T02:56:17;100093.41;;;10.19;100.00
45253;BME280;63171;50.520;30.486;2022-11-03T02:57:12;100090.19;;;10.14;100.00
45253;BME280;63171;50.520;30.486;2022-11-03T02:58:11;100087.19;;;10.22;100.00
45253;BME280;63171;50.520;30.486;2022-11-03T02:59:07;100092.56;;;10.19;100.00
45253;BME280;63171;50.520;30.486;2022-11-03T03:00:03;100088.34;;;10.16;100.00
45253;BME280;63171;50.520;30.486;2022-11-03T03:00:58;100095.41;;;10.14;100.00
45253;BME280;63171;50.520;30.486;2022-11-03T03:01:54;100089.44;;;10.12;100.00
45253;BME280;63171;50.520;30.486;2022-11-03T03:02:51;100084.09;;;10.14;100.00
45253;BME280;63171;50.520;30.486;2022-11-03T03:03:47;100086.56;;;10.17;100.00
45253;BME280;63171;50.520;30.486;2022-11-03T03:04:39;100086.66;;;10.15;100.00
45253;BME280;63171;50.520;30.486;2022-11-03T03:05:32;100091.63;;;10.20;100.00
45253;BME280;63171;50.520;30.486;2022-11-03T03:06:27;100085.22;;;10.25;100.00
45253;BME280;63171;50.520;30.486;2022-11-03T03:07:23;100081.66;;;10.26;100.00
45253;BME280;63171;50.520;30.486;2022-11-03T03:08:15;100086.81;;;10.28;100.00
45253;BME280;63171;50.520;30.486;2022-11-03T03:09:08;100084.28;;;10.26;100.00
45253;BME280;63171;50.520;30.486;2022-11-03T03:10:02;100087.94;;;10.24;100.00
45253;BME280;63171;50.520;30.486;2022-11-03T03:10:54;100082.59;;;10.25;100.00
45253;BME280;63171;50.520;30.486;2022-11-03T03:11:48;100080.91;;;10.24;100.00
45253;BME280;63171;50.520;30.486;2022-11-03T03:12:42;100086.41;;;10.20;100.00
45253;BME280;63171;50.520;30.486;2022-11-03T03:13:35;100081.09;;;10.21;100.00
45253;BME280;63171;50.520;30.486;2022-11-03T03:14:28;100084.81;;;10.17;100.00
45253;BME280;63171;50.520;30.486;2022-11-03T03:15:22;100079.31;;;10.22;100.00
45253;BME280;63171;50.520;30.486;2022-11-03T03:16:17;100085.72;;;10.16;100.00
45253;BME280;63171;50.520;30.486;2022-11-03T03:17:13;100088.34;;;10.16;100.00
45253;BME280;63171;50.520;30.486;2022-11-03T03:18:11;100081.44;;;10.15;100.00
45253;BME280;63171;50.520;30.486;2022-11-03T03:19:07;100083.13;;;10.16;100.00
45253;BME280;63171;50.520;30.486;2022-11-03T03:20:02;100078.97;;;10.12;100.00
45253;BME280;63171;50.520;30.486;2022-11-03T03:20:56;100080.09;;;10.08;100.00
45253;BME280;63171;50.520;30.486;2022-11-03T03:21:51;100073.59;;;9.99;100.00
45253;BME280;63171;50.520;30.486;2022-11-03T03:22:44;100081.53;;;9.98;100.00
45253;BME280;63171;50.520;30.486;2022-11-03T03:23:40;100074.78;;;9.94;100.00
45253;BME280;63171;50.520;30.486;2022-11-03T03:24:40;100076.66;;;9.92;100.00
45253;BME280;63171;50.520;30.486;2022-11-03T03:25:39;100080.69;;;9.97;100.00
45253;BME280;63171;50.520;30.486;2022-11-03T03:26:33;100077.72;;;10.03;100.00
45253;BME280;63171;50.520;30.486;2022-11-03T03:27:28;100077.66;;;10.05;100.00
45253;BME280;63171;50.520;30.486;2022-11-03T03:28:22;100074.00;;;10.07;100.00
45253;BME280;63171;50.520;30.486;2022-11-03T03:29:17;100067.41;;;10.00;100.00
45253;BME280;63171;50.520;30.486;2022-11-03T03:30:09;100070.81;;;10.02;100.00
45253;BME280;63171;50.520;30.486;2022-11-03T03:31:04;100077.66;;;10.05;100.00
45253;BME280;63171;50.520;30.486;2022-11-03T03:31:58;100078.97;;;10.12;100.00
45253;BME280;63171;50.520;30.486;2022-11-03T03:32:51;100072.81;;;10.13;100.00
45253;BME280;63171;50.520;30.486;2022-11-03T03:33:43;100072.66;;;10.16;100.00
45253;BME280;63171;50.520;30.486;2022-11-03T03:34:37;100071.22;;;10.11;100.00
45253;BME280;63171;50.520;30.486;2022-11-03T03:35:28;100072.41;;;10.05;100.00
45253;BME280;63171;50.520;30.486;2022-11-03T03:36:21;100074.94;;;10.06;100.00
45253;BME280;63171;50.520;30.486;2022-11-03T03:37:14;100068.88;;;10.06;100.00
45253;BME280;63171;50.520;30.486;2022-11-03T03:38:08;100063.25;;;10.12;100.00
45253;BME280;63171;50.520;30.486;2022-11-03T03:39:01;100064.00;;;10.14;100.00
45253;BME280;63171;50.520;30.486;2022-11-03T03:39:56;100064.94;;;10.13;100.00
45253;BME280;63171;50.520;30.486;2022-11-03T03:40:51;100069.19;;;10.16;100.00
45253;BME280;63171;50.520;30.486;2022-11-03T03:41:43;100059.91;;;10.10;100.00
45253;BME280;63171;50.520;30.486;2022-11-03T03:42:36;100058.97;;;10.11;100.00
45253;BME280;63171;50.520;30.486;2022-11-03T03:43:28;100064.94;;;10.13;100.00
45253;BME280;63171;50.520;30.486;2022-11-03T03:44:20;100067.94;;;10.07;100.00
45253;BME280;63171;50.520;30.486;2022-11-03T03:45:11;100062.44;;;10.12;100.00
45253;BME280;63171;50.520;30.486;2022-11-03T03:46:05;100067.19;;;10.05;100.00
45253;BME280;63171;50.520;30.486;2022-11-03T03:46:59;100068.69;;;10.09;100.00
45253;BME280;63171;50.520;30.486;2022-11-03T03:47:49;100061.94;;;10.05;100.00
45253;BME280;63171;50.520;30.486;2022-11-03T03:48:40;100059.91;;;10.10;100.00
45253;BME280;63171;50.520;30.486;2022-11-03T03:49:30;100060.84;;;10.09;100.00
45253;BME280;63171;50.520;30.486;2022-11-03T03:50:22;100069.78;;;10.05;100.00
45253;BME280;63171;50.520;30.486;2022-11-03T03:51:13;100062.03;;;10.03;100.00
45253;BME280;63171;50.520;30.486;2022-11-03T03:52:06;100065.66;;;10.01;100.00
45253;BME280;63171;50.520;30.486;2022-11-03T03:52:59;100064.75;;;10.02;100.00
45253;BME280;63171;50.520;30.486;2022-11-03T03:53:50;100063.13;;;9.99;100.00
45253;BME280;63171;50.520;30.486;2022-11-03T03:54:41;100064.56;;;10.05;100.00
45253;BME280;63171;50.520;30.486;2022-11-03T03:55:34;100062.78;;;10.05;100.00
45253;BME280;63171;50.520;30.486;2022-11-03T03:56:27;100056.03;;;10.01;100.00
45253;BME280;63171;50.520;30.486;2022-11-03T03:57:22;100059.66;;;9.99;100.00
45253;BME280;63171;50.520;30.486;2022-11-03T03:58:14;100054.28;;;10.02;100.00
45253;BME280;63171;50.520;30.486;2022-11-03T03:59:05;100060.41;;;10.01;100.00
45253;BME280;63171;50.520;30.486;2022-11-03T03:59:55;100059.19;;;9.92;100.00
45253;BME280;63171;50.520;30.486;2022-11-03T04:00:46;100058.63;;;10.01;100.00
45253;BME280;63171;50.520;30.486;2022-11-03T04:01:36;100063.31;;;9.96;100.00
45253;BME280;63171;50.520;30.486;2022-11-03T04:02:27;100062.38;;;9.97;100.00
45253;BME280;63171;50.520;30.486;2022-11-03T04:03:18;100057.38;;;10.08;100.00
45253;BME280;63171;50.520;30.486;2022-11-03T04:04:09;100052.31;;;10.05;100.00
45253;BME280;63171;50.520;30.486;2022-11-03T04:04:59;100063.03;;;10.01;100.00
45253;BME280;63171;50.520;30.486;2022-11-03T04:05:50;100054.69;;;9.94;100.00
45253;BME280;63171;50.520;30.486;2022-11-03T04:06:42;100055.53;;;9.95;100.00
45253;BME280;63171;50.520;30.486;2022-11-03T04:07:32;100049.47;;;9.94;100.00
45253;BME280;63171;50.520;30.486;2022-11-03T04:08:37;100052.75;;;9.98;100.00
45253;BME280;63171;50.520;30.486;2022-11-03T04:09:27;100053.28;;;9.89;100.00
45253;BME280;63171;50.520;30.486;2022-11-03T04:10:20;100055.28;;;9.84;100.00
45253;BME280;63171;50.520;30.486;2022-11-03T04:11:10;100046.44;;;9.86;100.00
45253;BME280;63171;50.520;30.486;2022-11-03T04:12:18;100046.34;;;9.88;100.00
45253;BME280;63171;50.520;30.486;2022-11-03T04:13:28;100048.06;;;9.89;100.00
45253;BME280;63171;50.520;30.486;2022-11-03T04:14:36;100042.97;;;9.86;100.00
45253;BME280;63171;50.520;30.486;2022-11-03T04:15:44;100053.59;;;9.83;100.00
45253;BME280;63171;50.520;30.486;2022-11-03T04:16:52;100047.53;;;9.82;100.00
45253;BME280;63171;50.520;30.486;2022-11-03T04:18:00;100040.72;;;9.64;100.00
45253;BME280;63171;50.520;30.486;2022-11-03T04:19:10;100037.66;;;9.71;100.00
45253;BME280;63171;50.520;30.486;2022-11-03T04:20:18;100034.47;;;9.82;100.00
45253;BME280;63171;50.520;30.486;2022-11-03T04:21:26;100040.88;;;9.76;100.00
45253;BME280;63171;50.520;30.486;2022-11-03T04:22:35;100036.31;;;9.80;100.00
45253;BME280;63171;50.520;30.486;2022-11-03T04:23:25;100037.06;;;9.82;100.00
45253;BME280;63171;50.520;30.486;2022-11-03T04:24:15;100042.72;;;9.74;100.00
45253;BME280;63171;50.520;30.486;2022-11-03T04:25:06;100039.88;;;9.79;100.00
45253;BME280;63171;50.520;30.486;2022-11-03T04:25:56;100034.97;;;9.73;100.00
45253;BME280;63171;50.520;30.486;2022-11-03T04:26:48;100037.59;;;9.73;100.00
45253;BME280;63171;50.520;30.486;2022-11-03T04:27:39;100039.97;;;9.62;100.00
45253;BME280;63171;50.520;30.486;2022-11-03T04:28:31;100038.59;;;9.70;100.00
45253;BME280;63171;50.520;30.486;2022-11-03T04:29:21;100041.56;;;9.80;100.00
45253;BME280;63171;50.520;30.486;2022-11-03T04:30:14;100042.63;;;9.92;100.00
45253;BME280;63171;50.520;30.486;2022-11-03T04:31:05;100045.16;;;9.93;100.00
45253;BME280;63171;50.520;30.486;2022-11-03T04:32:14;100042.72;;;9.90;100.00
45253;BME280;63171;50.520;30.486;2022-11-03T04:33:11;100044.31;;;9.93;100.00
45253;BME280;63171;50.520;30.486;2022-11-03T04:34:03;100043.38;;;9.94;100.00
45253;BME280;63171;50.520;30.486;2022-11-03T04:34:58;100038.66;;;9.85;100.00
45253;BME280;63171;50.520;30.486;2022-11-03T04:35:50;100039.59;;;9.84;100.00
45253;BME280;63171;50.520;30.486;2022-11-03T04:36:41;100037.16;;;9.81;100.00
45253;BME280;63171;50.520;30.486;2022-11-03T04:37:32;100042.03;;;9.87;100.00
45253;BME280;63171;50.520;30.486;2022-11-03T04:38:23;100044.41;;;9.91;100.00